Time;durP1;ratioP1;P1;durP2;ratioP2;P2;SDS_P1;SDS_P2;PMS_P1;PMS_P2;Temp;Humidity;BMP_temperature;BMP_pressure;BME280_temperature;BME280_humidity;BME280_pressure;Samples;Min_cycle;Max_cycle;Signal;HPM_P1;HPM_P2
2022/08/06 00:01:02;;;;;;;4.18;1.58;;;12.40;99.90;;;;;;5071651;28;20480;-65
2022/08/06 00:03:28;;;;;;;2.67;1.10;;;12.40;99.90;;;;;;5088896;28;20052;-65
2022/08/06 00:05:53;;;;;;;2.15;1.10;;;12.30;99.90;;;;;;5086724;28;20040;-65
2022/08/06 00:08:19;;;;;;;2.63;1.08;;;12.30;99.90;;;;;;5053855;28;20052;-66
2022/08/06 00:10:45;;;;;;;2.10;1.15;;;12.30;99.90;;;;;;5071816;28;20044;-65
2022/08/06 00:13:10;;;;;;;3.13;1.08;;;12.30;99.90;;;;;;5089186;28;20031;-65
2022/08/06 00:15:36;;;;;;;2.40;1.00;;;12.30;99.90;;;;;;5072658;28;20038;-66
2022/08/06 00:18:02;;;;;;;2.75;1.15;;;12.30;99.90;;;;;;5089142;28;20119;-64
2022/08/06 00:20:27;;;;;;;2.28;1.23;;;12.30;99.90;;;;;;5071337;28;20044;-64
2022/08/06 00:22:53;;;;;;;3.20;1.10;;;12.20;99.90;;;;;;5072288;28;20066;-64
2022/08/06 00:25:19;;;;;;;2.55;1.17;;;12.20;99.90;;;;;;5069637;28;20097;-65
2022/08/06 00:27:44;;;;;;;1.75;0.95;;;12.10;99.90;;;;;;5090095;28;20036;-64
2022/08/06 00:30:11;;;;;;;1.83;1.00;;;12.10;99.90;;;;;;5088766;28;20055;-64
2022/08/06 00:32:36;;;;;;;3.90;0.98;;;12.10;99.90;;;;;;5089750;28;20036;-65
2022/08/06 00:35:03;;;;;;;3.58;0.95;;;12.10;99.90;;;;;;5071805;28;20043;-65
2022/08/06 00:37:31;;;;;;;3.10;1.10;;;12.10;99.90;;;;;;5088441;28;20495;-63
2022/08/06 00:40:00;;;;;;;1.88;0.90;;;12.10;99.90;;;;;;5090628;28;20111;-63
2022/08/06 00:42:27;;;;;;;1.50;1.00;;;12.00;99.90;;;;;;5047859;28;20094;-66
2022/08/06 00:44:53;;;;;;;2.97;1.13;;;12.00;99.90;;;;;;5089321;28;20032;-66
2022/08/06 00:47:18;;;;;;;2.85;1.13;;;12.00;99.90;;;;;;5091492;28;20028;-64
2022/08/06 00:49:44;;;;;;;1.63;1.00;;;11.90;99.90;;;;;;5070417;28;20125;-64
2022/08/06 00:52:09;;;;;;;4.00;1.20;;;12.00;99.90;;;;;;5054606;28;20052;-65
2022/08/06 00:54:35;;;;;;;3.47;1.25;;;12.00;99.90;;;;;;5071952;28;20079;-65
2022/08/06 00:57:02;;;;;;;3.53;1.10;;;11.90;99.90;;;;;;5090290;28;20036;-65
2022/08/06 00:59:27;;;;;;;2.28;1.02;;;11.90;99.90;;;;;;5092811;28;20051;-66
2022/08/06 01:01:53;;;;;;;2.88;1.42;;;11.90;99.90;;;;;;5092330;28;20406;-64
2022/08/06 01:04:19;;;;;;;3.13;1.30;;;11.80;99.90;;;;;;5093580;28;20040;-64
2022/08/06 01:06:44;;;;;;;4.13;1.38;;;11.80;99.90;;;;;;5074412;28;20101;-64
2022/08/06 01:09:10;;;;;;;2.75;1.38;;;11.80;99.90;;;;;;5091580;28;20051;-64
2022/08/06 01:11:37;;;;;;;2.17;1.20;;;11.70;99.90;;;;;;5092872;28;20124;-65
2022/08/06 01:14:02;;;;;;;5.10;1.35;;;11.70;99.90;;;;;;5092418;28;20185;-64
2022/08/06 01:17:07;;;;;;;3.70;1.20;;;11.60;99.90;;;;;;5074778;28;20525;-65
2022/08/06 01:19:48;;;;;;;1.45;1.35;;;11.70;99.90;;;;;;4993457;28;20053;-64
2022/08/06 01:22:44;;;;;;;1.58;1.10;;;11.60;99.90;;;;;;4992887;28;20516;-65
2022/08/06 01:25:35;;;;;;;3.72;1.23;;;11.60;99.90;;;;;;5011313;28;20168;-65
2022/08/06 01:28:14;;;;;;;3.00;1.27;;;11.60;99.90;;;;;;4990416;28;20096;-65
2022/08/06 01:30:52;;;;;;;3.10;1.13;;;11.60;99.90;;;;;;4993959;28;20133;-64
2022/08/06 01:33:27;;;;;;;3.33;1.20;;;11.60;99.90;;;;;;4994141;28;20076;-65
2022/08/06 01:35:57;;;;;;;1.48;0.90;;;11.60;99.90;;;;;;4993808;28;20061;-64
2022/08/06 01:38:32;;;;;;;1.88;1.13;;;11.60;99.90;;;;;;4992717;28;20080;-65
2022/08/06 01:41:02;;;;;;;3.03;1.10;;;11.50;99.90;;;;;;4978212;28;20078;-66
2022/08/06 01:43:30;;;;;;;1.83;1.25;;;11.50;99.90;;;;;;4993485;28;20516;-64
2022/08/06 01:45:56;;;;;;;2.38;1.20;;;11.50;99.90;;;;;;5014482;28;20045;-65
2022/08/06 01:48:25;;;;;;;1.65;1.48;;;11.40;99.90;;;;;;5001861;28;20137;-64
2022/08/06 01:50:54;;;;;;;2.53;1.30;;;11.40;99.90;;;;;;4993501;28;20045;-64
2022/08/06 01:53:27;;;;;;;4.05;1.50;;;11.40;99.90;;;;;;4993244;28;20120;-66
2022/08/06 01:55:53;;;;;;;;;;;11.40;99.90;;;;;;5060636;28;20490;-66
2022/08/06 01:58:24;;;;;;;2.50;1.65;;;11.40;99.90;;;;;;5074109;28;19920;-64
2022/08/06 02:00:51;;;;;;;2.00;1.30;;;11.40;99.90;;;;;;5073429;28;20032;-65
2022/08/06 02:03:30;;;;;;;1.67;1.20;;;11.40;99.90;;;;;;5072471;28;20044;-63
2022/08/06 02:05:57;;;;;;;1.40;1.13;;;11.40;99.90;;;;;;5071903;28;20475;-65
2022/08/06 02:08:27;;;;;;;1.50;0.90;;;11.40;99.90;;;;;;5092236;28;20119;-65
2022/08/06 02:10:54;;;;;;;2.20;1.30;;;11.30;99.90;;;;;;5091169;28;20399;-66
2022/08/06 02:13:22;;;;;;;4.25;1.45;;;11.30;99.90;;;;;;5073971;28;20486;-64
2022/08/06 02:15:48;;;;;;;1.92;1.40;;;11.30;99.90;;;;;;5071884;28;20514;-65
2022/08/06 02:18:17;;;;;;;2.60;1.40;;;11.30;99.90;;;;;;5079949;28;20363;-65
2022/08/06 02:20:47;;;;;;;2.20;1.55;;;11.20;99.90;;;;;;5094879;28;20117;-65
2022/08/06 02:23:23;;;;;;;4.30;1.67;;;11.20;99.90;;;;;;5087800;28;20051;-64
2022/08/06 02:25:52;;;;;;;3.50;1.83;;;11.20;99.90;;;;;;5072401;28;20576;-64
2022/08/06 02:28:20;;;;;;;3.65;1.75;;;11.20;99.90;;;;;;5072786;28;20050;-64
2022/08/06 02:30:48;;;;;;;2.20;1.73;;;11.20;99.90;;;;;;5092631;28;20052;-64
2022/08/06 02:33:15;;;;;;;2.22;1.65;;;11.20;99.90;;;;;;5072988;28;20068;-65
2022/08/06 02:36:03;;;;;;;3.17;1.90;;;11.20;99.90;;;;;;5073855;28;20040;-64
2022/08/06 02:38:48;;;;;;;2.97;1.80;;;11.20;99.90;;;;;;5072323;28;20127;-64
2022/08/06 02:41:40;;;;;;;3.92;1.98;;;11.20;99.90;;;;;;5054138;28;20051;-66
2022/08/06 02:44:22;;;;;;;3.90;2.40;;;11.10;99.90;;;;;;5071671;28;20039;-64
2022/08/06 02:47:12;;;;;;;3.35;2.70;;;11.10;99.90;;;;;;5072667;28;20043;-65
2022/08/06 02:49:43;;;;;;;4.47;2.90;;;11.10;99.90;;;;;;5073017;28;20054;-65
2022/08/06 02:52:18;;;;;;;4.93;3.30;;;11.10;99.90;;;;;;5090253;28;20158;-64
2022/08/06 02:54:55;;;;;;;4.30;3.47;;;11.10;99.90;;;;;;5072874;28;20443;-64
2022/08/06 02:57:24;;;;;;;4.75;3.58;;;11.10;99.90;;;;;;5075458;28;20047;-65
2022/08/06 02:59:54;;;;;;;4.55;3.45;;;11.10;99.90;;;;;;5072510;28;20044;-65
2022/08/06 03:02:23;;;;;;;4.10;3.25;;;11.10;99.90;;;;;;5072297;28;20451;-64
2022/08/06 03:04:51;;;;;;;5.72;3.10;;;11.10;99.90;;;;;;5072267;28;20032;-65
2022/08/06 03:07:19;;;;;;;5.45;4.10;;;11.10;99.90;;;;;;5090437;28;20093;-65
2022/08/06 03:09:48;;;;;;;5.40;3.75;;;11.10;99.90;;;;;;5072749;28;20123;-64
2022/08/06 03:12:15;;;;;;;2.58;2.38;;;11.10;99.90;;;;;;5071535;28;20044;-64
2022/08/06 03:14:43;;;;;;;3.15;2.47;;;11.10;99.90;;;;;;5072370;28;20440;-64
2022/08/06 03:17:12;;;;;;;2.80;2.13;;;11.10;99.90;;;;;;5075099;28;20517;-66
2022/08/06 03:19:39;;;;;;;3.35;2.13;;;11.10;99.90;;;;;;5071632;28;20139;-65
2022/08/06 03:22:06;;;;;;;4.20;3.05;;;11.00;99.90;;;;;;5071140;28;20050;-65
2022/08/06 03:24:34;;;;;;;5.65;3.90;;;11.00;99.90;;;;;;5089673;28;20054;-65
2022/08/06 03:27:03;;;;;;;6.97;4.55;;;11.00;99.90;;;;;;5069655;28;20445;-65
2022/08/06 03:29:29;;;;;;;8.05;4.13;;;11.00;99.90;;;;;;5071159;28;20052;-64
2022/08/06 03:31:56;;;;;;;6.50;4.60;;;11.00;99.90;;;;;;5088947;28;20083;-65
2022/08/06 03:34:22;;;;;;;4.72;3.17;;;11.00;99.90;;;;;;5071422;28;20075;-65
2022/08/06 03:36:49;;;;;;;3.72;2.90;;;10.90;99.90;;;;;;5069342;28;20047;-64
2022/08/06 03:39:16;;;;;;;2.45;2.20;;;10.90;99.90;;;;;;5070303;28;20119;-65
2022/08/06 03:41:43;;;;;;;5.85;2.25;;;10.90;99.90;;;;;;5071142;28;20479;-64
2022/08/06 03:44:09;;;;;;;2.85;2.50;;;10.90;99.90;;;;;;5083054;28;20035;-65
2022/08/06 03:46:43;;;;;;;3.85;3.55;;;10.90;99.90;;;;;;5071752;28;20093;-65
2022/08/06 03:49:16;;;;;;;6.75;4.32;;;10.90;99.90;;;;;;5089362;28;20506;-65
2022/08/06 03:51:44;;;;;;;3.75;3.10;;;10.80;99.90;;;;;;5065815;28;20040;-65
2022/08/06 03:54:13;;;;;;;3.67;2.80;;;10.80;99.90;;;;;;5070014;28;20084;-65
2022/08/06 03:56:41;;;;;;;4.10;3.00;;;10.80;99.90;;;;;;5090742;28;20062;-65
2022/08/06 03:59:08;;;;;;;3.55;3.10;;;10.70;99.90;;;;;;5090059;28;20047;-65
2022/08/06 04:01:41;;;;;;;5.43;4.30;;;10.70;99.90;;;;;;5068936;28;20064;-65
2022/08/06 04:04:08;;;;;;;5.22;3.47;;;10.60;99.90;;;;;;5090528;28;20103;-64
2022/08/06 04:06:35;;;;;;;4.25;3.40;;;10.60;99.90;;;;;;5070088;28;20040;-64
2022/08/06 04:09:02;;;;;;;5.22;4.20;;;10.60;99.90;;;;;;5089654;28;20040;-65
2022/08/06 04:11:29;;;;;;;9.27;4.95;;;10.60;99.90;;;;;;5089514;28;20557;-65
2022/08/06 04:13:55;;;;;;;11.82;5.70;;;10.60;99.90;;;;;;5071874;28;20165;-66
2022/08/06 04:16:21;;;;;;;7.05;4.68;;;10.60;99.90;;;;;;5069617;28;20115;-64
2022/08/06 04:18:48;;;;;;;9.02;4.70;;;10.60;99.90;;;;;;5071227;28;20055;-65
2022/08/06 04:21:20;;;;;;;6.10;4.75;;;10.60;99.90;;;;;;5071382;28;20092;-64
2022/08/06 04:23:46;;;;;;;4.90;3.83;;;10.60;99.90;;;;;;5088081;28;20032;-64
2022/08/06 04:26:15;;;;;;;5.35;4.03;;;10.70;99.90;;;;;;5070081;28;20119;-65
2022/08/06 04:28:43;;;;;;;7.00;4.30;;;10.70;99.90;;;;;;5083882;28;20040;-64
2022/08/06 04:31:10;;;;;;;6.68;4.57;;;10.70;99.90;;;;;;5073569;28;20128;-65
2022/08/06 04:33:39;;;;;;;5.35;3.70;;;10.80;99.90;;;;;;5059892;28;20279;-65
2022/08/06 04:36:06;;;;;;;6.68;4.60;;;10.70;99.90;;;;;;5092866;28;20040;-66
2022/08/06 04:38:33;;;;;;;6.22;4.95;;;10.70;99.90;;;;;;5077179;28;20505;-66
2022/08/06 04:40:59;;;;;;;6.35;5.40;;;10.80;99.90;;;;;;5074438;28;20548;-65
2022/08/06 04:43:25;;;;;;;6.00;4.90;;;10.80;99.90;;;;;;5075424;28;20047;-64
2022/08/06 04:45:52;;;;;;;5.85;4.32;;;10.90;99.90;;;;;;5094381;28;20042;-66
2022/08/06 04:48:18;;;;;;;5.03;4.28;;;11.00;99.90;;;;;;5092315;28;20035;-65
2022/08/06 04:50:44;;;;;;;4.53;4.13;;;11.10;99.90;;;;;;5075326;28;20040;-65
2022/08/06 04:53:12;;;;;;;5.05;4.55;;;11.20;99.90;;;;;;5074381;28;20397;-65
2022/08/06 04:55:39;;;;;;;6.05;4.78;;;11.40;99.90;;;;;;5073051;28;20071;-66
2022/08/06 04:58:08;;;;;;;5.72;4.40;;;11.50;99.90;;;;;;5075703;28;20441;-64
2022/08/06 05:00:37;;;;;;;6.43;4.53;;;11.70;99.90;;;;;;5073942;28;20185;-65
2022/08/06 05:03:04;;;;;;;6.32;5.72;;;11.80;99.90;;;;;;5071521;28;20799;-66
2022/08/06 05:05:33;;;;;;;6.35;5.15;;;11.80;99.90;;;;;;5058144;28;20050;-65
2022/08/06 05:08:02;;;;;;;6.18;4.97;;;11.90;99.90;;;;;;5074114;28;20684;-65
2022/08/06 05:10:51;;;;;;;6.20;5.05;;;12.00;99.90;;;;;;5075382;28;20044;-65
2022/08/06 05:13:20;;;;;;;6.90;5.90;;;12.10;99.90;;;;;;5065291;28;20047;-65
2022/08/06 05:15:53;;;;;;;5.85;5.22;;;12.10;99.90;;;;;;5074558;28;20051;-65
2022/08/06 05:18:25;;;;;;;;;;;12.10;99.90;;;;;;5075196;28;20099;-64
2022/08/06 05:20:54;;;;;;;5.10;4.60;;;12.20;99.90;;;;;;5073332;28;19924;-66
2022/08/06 05:23:48;;;;;;;6.43;4.65;;;12.20;99.90;;;;;;5091831;28;20035;-65
2022/08/06 05:26:14;;;;;;;6.22;4.95;;;12.30;99.90;;;;;;5088862;28;20048;-65
2022/08/06 05:28:40;;;;;;;7.07;4.43;;;12.40;99.90;;;;;;5073273;28;20125;-66
2022/08/06 05:31:07;;;;;;;4.97;4.32;;;12.50;99.90;;;;;;5090991;28;20036;-65
2022/08/06 05:33:37;;;;;;;4.82;3.55;;;12.60;99.90;;;;;;5071950;28;20048;-64
2022/08/06 05:36:06;;;;;;;5.65;3.60;;;12.80;99.90;;;;;;5073497;28;20044;-66
2022/08/06 05:38:34;;;;;;;5.00;4.00;;;12.80;99.90;;;;;;5070777;28;20047;-64
2022/08/06 05:40:59;;;;;;;7.03;3.40;;;12.90;99.90;;;;;;5072563;28;20062;-65
2022/08/06 05:43:25;;;;;;;3.90;3.42;;;13.00;99.90;;;;;;5091116;28;20044;-65
2022/08/06 05:45:56;;;;;;;5.03;3.15;;;13.20;99.90;;;;;;5083313;28;20122;-65
2022/08/06 05:48:22;;;;;;;4.25;2.88;;;13.30;99.90;;;;;;5102784;28;20452;-64
2022/08/06 05:50:55;;;;;;;5.97;3.20;;;13.50;99.90;;;;;;5073734;28;20044;-65
2022/08/06 05:53:33;;;;;;;5.88;3.40;;;13.60;99.90;;;;;;5089188;28;20048;-65
2022/08/06 05:56:06;;;;;;;3.17;2.78;;;13.70;99.90;;;;;;5087155;28;20660;-65
2022/08/06 05:58:39;;;;;;;5.15;2.97;;;13.90;99.90;;;;;;5079414;28;20044;-65
2022/08/06 06:01:07;;;;;;;4.70;3.20;;;14.00;99.90;;;;;;5070377;28;20040;-65
2022/08/06 06:03:34;;;;;;;3.58;2.50;;;14.20;99.90;;;;;;5070772;28;20122;-65
2022/08/06 06:06:01;;;;;;;4.15;2.88;;;14.30;99.90;;;;;;5070922;28;20040;-65
2022/08/06 06:08:27;;;;;;;3.22;2.85;;;14.50;99.90;;;;;;5072088;28;20113;-64
2022/08/06 06:10:54;;;;;;;3.45;2.65;;;14.50;99.90;;;;;;5089273;28;20032;-64
2022/08/06 06:13:21;;;;;;;4.07;3.10;;;14.60;99.90;;;;;;5073183;28;20044;-65
2022/08/06 06:16:05;;;;;;;3.25;2.83;;;14.80;99.90;;;;;;5071697;28;20461;-64
2022/08/06 06:18:46;;;;;;;5.85;2.53;;;14.90;99.90;;;;;;5076800;28;20039;-65
2022/08/06 06:21:32;;;;;;;4.07;2.67;;;14.90;99.90;;;;;;5070794;28;20090;-65
2022/08/06 06:24:13;;;;;;;3.20;2.70;;;15.00;99.90;;;;;;5071028;28;20036;-65
2022/08/06 06:27:08;;;;;;;2.65;2.20;;;15.10;99.90;;;;;;5072332;28;20131;-65
2022/08/06 06:29:37;;;;;;;1.93;1.83;;;15.20;99.90;;;;;;5034877;28;1082089;-66
2022/08/06 06:32:18;;;;;;;2.22;1.83;;;15.20;99.90;;;;;;5072948;28;20087;-66
2022/08/06 06:34:54;;;;;;;2.70;1.57;;;15.40;99.90;;;;;;5092199;28;20509;-64
2022/08/06 06:37:28;;;;;;;2.90;1.45;;;15.50;99.90;;;;;;5073374;28;20671;-64
2022/08/06 06:40:09;;;;;;;3.65;1.40;;;15.60;99.90;;;;;;5073257;28;20040;-64
2022/08/06 06:42:42;;;;;;;1.95;1.23;;;15.80;99.90;;;;;;5086245;28;20032;-66
2022/08/06 06:45:30;;;;;;;2.60;1.20;;;15.90;99.90;;;;;;5072552;28;20114;-64
2022/08/06 06:48:01;;;;;;;3.42;1.20;;;16.00;99.90;;;;;;5073672;28;20039;-64
2022/08/06 06:50:34;;;;;;;1.90;0.90;;;16.20;99.90;;;;;;5072048;28;20428;-64
2022/08/06 06:53:00;;;;;;;;;;;16.40;99.90;;;;;;5088267;28;20418;-65
2022/08/06 06:55:32;;;;;;;4.15;1.30;;;16.50;99.90;;;;;;5082349;28;19931;-64
2022/08/06 06:58:24;;;;;;;1.83;0.60;;;16.60;99.90;;;;;;5070135;28;20040;-63
2022/08/06 07:00:52;;;;;;;1.27;0.60;;;16.70;99.90;;;;;;5071083;28;20040;-64
2022/08/06 07:03:19;;;;;;;1.98;0.50;;;16.90;99.90;;;;;;5072559;28;20067;-64
2022/08/06 07:05:48;;;;;;;3.55;0.60;;;17.00;99.90;;;;;;5088993;28;20506;-64
2022/08/06 07:08:17;;;;;;;2.00;0.47;;;17.10;99.90;;;;;;5072335;28;20044;-65
2022/08/06 07:10:44;;;;;;;4.57;0.70;;;17.20;99.90;;;;;;5073264;28;20073;-63
2022/08/06 07:13:11;;;;;;;1.60;0.50;;;17.30;99.90;;;;;;5071679;28;20388;-64
2022/08/06 07:15:40;;;;;;;2.85;0.50;;;17.50;99.90;;;;;;5091232;28;20835;-64
2022/08/06 07:18:06;;;;;;;3.40;0.60;;;17.60;99.90;;;;;;5089894;28;20035;-64
2022/08/06 07:20:33;;;;;;;10.85;0.90;;;17.50;99.90;;;;;;5073393;28;20478;-64
2022/08/06 07:23:02;;;;;;;1.55;0.50;;;17.50;99.90;;;;;;5090142;28;20040;-66
2022/08/06 07:25:28;;;;;;;3.25;0.43;;;17.70;99.90;;;;;;5089370;28;20044;-68
2022/08/06 07:27:54;;;;;;;1.65;0.40;;;17.80;99.90;;;;;;5072693;28;20036;-64
2022/08/06 07:30:21;;;;;;;2.17;0.50;;;18.00;99.90;;;;;;5089121;28;20505;-63
2022/08/06 07:32:48;;;;;;;1.85;0.65;;;18.10;99.90;;;;;;5091235;28;20083;-64
2022/08/06 07:35:18;;;;;;;2.13;0.50;;;18.20;99.90;;;;;;5072445;28;20039;-65
2022/08/06 07:37:56;;;;;;;4.05;0.60;;;18.30;99.90;;;;;;5072582;28;20040;-66
2022/08/06 07:40:29;;;;;;;1.95;0.40;;;18.40;99.90;;;;;;5071687;28;20048;-64
2022/08/06 07:43:00;;;;;;;3.45;0.60;;;18.40;99.90;;;;;;5090974;28;20101;-65
2022/08/06 07:45:31;;;;;;;2.97;0.60;;;18.70;99.90;;;;;;5072374;28;20176;-63
2022/08/06 07:47:59;;;;;;;1.83;0.50;;;18.80;99.90;;;;;;5072932;28;20039;-66
2022/08/06 07:50:27;;;;;;;2.50;0.43;;;18.90;99.90;;;;;;5073689;28;20123;-65
2022/08/06 07:52:55;;;;;;;3.30;0.63;;;19.10;99.90;;;;;;5092689;28;20127;-64
2022/08/06 07:55:26;;;;;;;1.10;0.60;;;19.10;99.90;;;;;;5092484;28;20389;-64
2022/08/06 07:57:56;;;;;;;2.42;0.50;;;19.30;99.90;;;;;;5093171;28;20473;-63
2022/08/06 08:00:23;;;;;;;2.65;0.60;;;19.60;99.90;;;;;;5078413;28;20047;-65
2022/08/06 08:08:26;;;;;;;3.88;0.50;;;20.10;99.90;;;;;;5090452;28;20565;-65
2022/08/06 08:10:54;;;;;;;2.38;0.47;;;19.90;99.90;;;;;;5054998;28;20051;-66
2022/08/06 08:13:22;;;;;;;2.88;0.47;;;19.60;99.90;;;;;;5072286;28;20044;-67
2022/08/06 08:15:49;;;;;;;2.30;0.85;;;19.50;99.90;;;;;;5072445;28;20040;-65
2022/08/06 08:18:14;;;;;;;2.67;0.70;;;19.60;99.90;;;;;;5072656;28;20044;-64
2022/08/06 08:20:42;;;;;;;2.63;0.63;;;19.80;99.90;;;;;;5071847;28;20040;-65
2022/08/06 08:23:12;;;;;;;2.08;0.55;;;20.00;99.90;;;;;;5090688;28;20039;-64
2022/08/06 08:25:38;;;;;;;1.73;0.57;;;20.10;99.90;;;;;;5072067;28;20062;-65
2022/08/06 08:28:04;;;;;;;1.90;0.40;;;20.20;99.90;;;;;;5072637;28;20436;-65
2022/08/06 08:30:30;;;;;;;1.52;0.35;;;20.20;98.60;;;;;;5071704;28;20063;-65
2022/08/06 08:32:56;;;;;;;0.88;0.40;;;20.10;99.10;;;;;;5090062;28;20079;-64
2022/08/06 08:35:22;;;;;;;1.90;0.50;;;20.20;99.60;;;;;;5072384;28;20044;-63
2022/08/06 08:37:48;;;;;;;2.70;0.60;;;20.40;99.40;;;;;;5055516;28;20093;-65
2022/08/06 08:40:13;;;;;;;1.65;0.50;;;20.50;99.20;;;;;;5072351;28;20036;-66
2022/08/06 08:42:53;;;;;;;1.27;0.50;;;20.70;98.90;;;;;;5092030;28;20067;-67
2022/08/06 08:45:19;;;;;;;2.67;0.50;;;20.70;97.70;;;;;;5090572;28;20028;-65
2022/08/06 08:47:50;;;;;;;2.25;0.68;;;20.30;97.80;;;;;;5090091;28;20040;-65
2022/08/06 08:50:20;;;;;;;2.65;0.50;;;20.50;98.60;;;;;;5096530;28;20131;-64
2022/08/06 08:52:50;;;;;;;2.53;0.68;;;20.80;99.20;;;;;;5098113;28;20055;-67
2022/08/06 08:55:18;;;;;;;1.85;0.77;;;20.90;98.30;;;;;;5100018;28;20032;-64
2022/08/06 08:57:44;;;;;;;1.60;0.70;;;20.90;97.30;;;;;;5052844;28;20048;-65
2022/08/06 09:00:10;;;;;;;3.42;0.88;;;20.90;97.80;;;;;;5090260;28;20081;-64
2022/08/06 09:02:39;;;;;;;1.80;0.80;;;20.70;97.60;;;;;;5071513;28;20093;-64
2022/08/06 09:05:06;;;;;;;5.25;0.90;;;20.90;98.40;;;;;;5071604;28;20067;-66
2022/08/06 09:07:33;;;;;;;4.10;0.88;;;21.00;98.50;;;;;;5072221;28;20040;-65
2022/08/06 09:09:59;;;;;;;2.33;1.05;;;21.10;98.30;;;;;;5071301;28;20032;-63
2022/08/06 09:12:25;;;;;;;1.50;0.80;;;21.30;97.80;;;;;;5072323;28;20119;-66
2022/08/06 09:14:51;;;;;;;2.13;0.93;;;21.20;97.00;;;;;;5070114;28;20131;-65
2022/08/06 09:17:17;;;;;;;3.60;0.90;;;21.30;97.30;;;;;;5074266;28;20040;-65
2022/08/06 09:19:43;;;;;;;1.13;0.70;;;21.40;97.10;;;;;;5092358;28;20097;-65
2022/08/06 09:22:10;;;;;;;2.60;0.80;;;21.50;97.30;;;;;;5093558;28;20028;-64
2022/08/06 09:24:37;;;;;;;2.05;0.98;;;21.50;97.30;;;;;;5092912;28;20036;-65
2022/08/06 09:27:09;;;;;;;1.70;0.88;;;21.40;97.30;;;;;;5093334;28;20032;-65
2022/08/06 09:29:35;;;;;;;2.17;1.02;;;21.30;96.70;;;;;;5074267;28;20647;-64
2022/08/06 09:32:04;;;;;;;2.78;1.08;;;21.00;97.00;;;;;;5058175;28;20406;-65
2022/08/06 09:34:37;;;;;;;2.40;0.90;;;20.80;97.20;;;;;;5074128;28;20048;-66
2022/08/06 09:37:04;;;;;;;3.58;1.30;;;20.50;96.20;;;;;;5073345;28;20494;-65
2022/08/06 09:39:33;;;;;;;3.08;1.08;;;20.70;96.60;;;;;;5073423;28;20059;-64
2022/08/06 09:41:59;;;;;;;4.18;1.52;;;21.00;96.00;;;;;;5074891;28;20044;-65
2022/08/06 09:44:24;;;;;;;2.60;1.30;;;21.30;95.60;;;;;;5074428;28;20048;-65
2022/08/06 09:46:50;;;;;;;2.20;1.30;;;21.60;95.30;;;;;;5077230;28;20043;-64
2022/08/06 09:49:17;;;;;;;1.95;1.13;;;22.10;95.50;;;;;;5113605;28;20073;-64
2022/08/06 09:51:43;;;;;;;1.33;1.08;;;22.10;95.20;;;;;;5083855;28;20051;-64
2022/08/06 09:54:15;;;;;;;3.83;1.40;;;21.90;94.80;;;;;;5077183;28;20035;-65
2022/08/06 09:56:45;;;;;;;1.80;1.20;;;21.80;94.70;;;;;;5087030;28;20047;-65
2022/08/06 09:59:12;;;;;;;2.25;1.23;;;21.60;94.40;;;;;;5074548;28;20043;-65
2022/08/06 10:01:45;;;;;;;3.53;1.33;;;21.30;94.80;;;;;;5075018;28;20490;-64
2022/08/06 10:04:26;;;;;;;2.55;1.40;;;21.00;95.00;;;;;;5072419;28;20075;-64
2022/08/06 10:06:57;;;;;;;2.45;1.20;;;20.70;95.10;;;;;;5083149;28;20172;-64
2022/08/06 10:09:24;;;;;;;3.60;1.40;;;20.50;95.30;;;;;;5087868;28;20048;-65
2022/08/06 10:11:50;;;;;;;4.72;1.35;;;20.50;95.40;;;;;;5074034;28;20075;-63
2022/08/06 10:14:22;;;;;;;8.07;1.58;;;20.70;95.50;;;;;;5091941;28;20129;-65
2022/08/06 10:17:06;;;;;;;9.48;1.70;;;21.20;95.20;;;;;;5074420;28;20429;-63
2022/08/06 10:19:32;;;;;;;6.32;1.67;;;21.50;95.10;;;;;;5071612;28;20036;-64
2022/08/06 10:22:15;;;;;;;4.82;1.30;;;22.00;95.10;;;;;;5073091;28;20453;-65
2022/08/06 10:24:44;;;;;;;2.83;1.60;;;21.80;93.80;;;;;;5072493;28;20490;-65
2022/08/06 10:27:15;;;;;;;4.75;1.40;;;21.60;94.10;;;;;;5091052;28;20036;-64
2022/08/06 10:29:51;;;;;;;3.35;1.38;;;21.30;94.60;;;;;;5070584;28;20051;-66
2022/08/06 10:32:25;;;;;;;2.15;1.25;;;21.00;94.40;;;;;;5078769;28;20083;-66
2022/08/06 10:34:53;;;;;;;3.08;1.52;;;20.80;94.80;;;;;;5067783;28;20048;-66
2022/08/06 10:37:19;;;;;;;1.90;1.48;;;20.60;95.10;;;;;;5075988;28;20047;-65
2022/08/06 10:39:54;;;;;;;1.38;1.15;;;20.50;95.40;;;;;;5089583;28;20036;-64
2022/08/06 10:42:21;;;;;;;2.53;1.42;;;20.80;95.10;;;;;;5087284;28;20113;-64
2022/08/06 10:44:48;;;;;;;1.70;1.27;;;21.00;95.40;;;;;;5071524;28;20059;-65
2022/08/06 10:47:15;;;;;;;3.75;1.30;;;21.00;95.30;;;;;;5072548;28;20044;-64
2022/08/06 10:49:42;;;;;;;2.40;1.63;;;20.90;95.10;;;;;;5091800;28;20038;-66
2022/08/06 10:52:10;;;;;;;3.17;1.60;;;21.00;95.20;;;;;;5088433;28;20043;-64
2022/08/06 10:54:37;;;;;;;2.22;1.50;;;21.40;95.60;;;;;;5090905;28;20040;-66
2022/08/06 10:57:03;;;;;;;3.38;1.55;;;22.00;95.70;;;;;;5073142;28;20449;-64
2022/08/06 10:59:28;;;;;;;1.55;1.27;;;22.70;95.50;;;;;;5070357;28;20052;-65
2022/08/06 11:02:21;;;;;;;2.47;1.30;;;22.90;93.90;;;;;;5091092;28;20032;-65
2022/08/06 11:04:47;;;;;;;;;;;23.20;93.70;;;;;;5069019;28;20053;-64
2022/08/06 11:07:50;;;;;;;2.80;1.50;;;23.40;93.50;;;;;;5090553;28;19916;-65
2022/08/06 11:10:45;;;;;;;2.28;1.30;;;23.00;91.90;;;;;;5069576;28;20040;-65
2022/08/06 11:13:26;;;;;;;2.22;1.40;;;22.40;92.90;;;;;;5072853;28;20125;-64
2022/08/06 11:15:52;;;;;;;2.58;1.27;;;21.80;93.20;;;;;;5081655;28;20121;-66
2022/08/06 11:18:18;;;;;;;4.20;1.30;;;21.30;93.50;;;;;;5101641;28;20036;-65
2022/08/06 11:20:46;;;;;;;2.67;1.15;;;20.90;93.70;;;;;;5091201;28;20040;-63
2022/08/06 11:23:11;;;;;;;2.35;1.30;;;20.60;94.00;;;;;;5056784;28;20135;-64
2022/08/06 11:25:41;;;;;;;1.52;1.20;;;20.30;93.90;;;;;;5072966;28;20123;-65
2022/08/06 11:28:09;;;;;;;1.92;1.10;;;20.00;94.10;;;;;;5091494;28;20043;-66
2022/08/06 11:30:47;;;;;;;1.95;1.30;;;19.90;94.20;;;;;;5047820;28;20076;-66
2022/08/06 11:33:14;;;;;;;2.97;1.45;;;19.80;94.70;;;;;;5049999;28;20487;-64
2022/08/06 11:35:43;;;;;;;3.55;1.50;;;19.70;95.00;;;;;;5049636;28;20099;-64
2022/08/06 11:38:12;;;;;;;2.45;1.33;;;19.70;95.30;;;;;;5049052;28;20044;-66
2022/08/06 11:40:57;;;;;;;3.40;1.50;;;19.70;95.50;;;;;;5048715;28;20472;-65
2022/08/06 11:43:53;;;;;;;3.20;1.40;;;19.70;96.00;;;;;;5050866;28;20048;-64
2022/08/06 11:46:38;;;;;;;3.38;1.58;;;19.70;96.40;;;;;;5049517;28;20045;-65
2022/08/06 11:49:03;;;;;;;1.80;1.27;;;19.70;96.60;;;;;;5048129;28;20044;-65
2022/08/06 11:51:49;;;;;;;4.00;1.25;;;19.80;96.30;;;;;;5049222;28;20052;-65
2022/08/06 11:54:15;;;;;;;1.80;1.20;;;19.90;96.60;;;;;;5048335;28;20404;-65
2022/08/06 11:57:00;;;;;;;1.90;1.10;;;20.00;96.70;;;;;;5047110;28;20037;-65
2022/08/06 11:59:27;;;;;;;2.28;1.13;;;20.10;97.00;;;;;;5048462;28;20397;-64
2022/08/06 12:01:53;;;;;;;2.60;1.27;;;20.30;95.90;;;;;;5047426;28;20041;-63
2022/08/06 12:04:34;;;;;;;2.08;1.25;;;20.70;96.40;;;;;;5050860;28;20036;-65
2022/08/06 12:07:29;;;;;;;2.20;1.05;;;21.10;96.20;;;;;;5049889;28;20154;-66
2022/08/06 12:10:07;;;;;;;1.80;1.10;;;21.20;94.60;;;;;;5048941;28;20396;-66
2022/08/06 12:12:43;;;;;;;2.10;1.20;;;21.10;94.20;;;;;;5048490;28;20064;-66
2022/08/06 12:15:12;;;;;;;2.47;1.60;;;21.00;94.30;;;;;;5047588;28;20469;-64
2022/08/06 12:17:41;;;;;;;5.22;1.30;;;20.80;94.10;;;;;;5049072;28;20052;-64
2022/08/06 12:20:08;;;;;;;3.17;1.13;;;20.50;93.80;;;;;;5049083;28;20432;-65
2022/08/06 12:22:35;;;;;;;2.58;1.50;;;20.40;94.10;;;;;;5048687;28;20041;-64
2022/08/06 12:25:04;;;;;;;3.10;1.50;;;20.30;93.90;;;;;;5044902;28;20045;-65
2022/08/06 12:27:35;;;;;;;2.40;1.10;;;20.30;94.00;;;;;;5048029;28;20053;-64
2022/08/06 12:30:04;;;;;;;4.95;1.30;;;20.30;94.30;;;;;;5058636;28;20049;-66
2022/08/06 12:32:34;;;;;;;1.42;1.10;;;20.30;93.80;;;;;;5061177;28;20491;-65
2022/08/06 12:35:19;;;;;;;2.92;1.20;;;20.40;93.40;;;;;;5053880;28;20048;-65
2022/08/06 12:37:46;;;;;;;1.38;1.00;;;20.70;93.30;;;;;;5047196;28;20083;-66
2022/08/06 12:40:29;;;;;;;1.92;0.90;;;20.90;93.40;;;;;;5065839;28;20064;-64
2022/08/06 12:43:01;;;;;;;1.60;1.25;;;21.10;93.00;;;;;;5067370;28;20042;-67
2022/08/06 12:45:28;;;;;;;2.35;1.20;;;21.30;93.50;;;;;;5063122;28;20063;-67
2022/08/06 12:48:01;;;;;;;4.55;1.30;;;21.50;93.40;;;;;;5069844;28;20043;-65
2022/08/06 12:50:28;;;;;;;2.50;1.10;;;21.60;93.40;;;;;;5069330;28;20040;-66
2022/08/06 12:53:10;;;;;;;2.08;1.10;;;21.70;93.40;;;;;;5055042;28;20138;-65
2022/08/06 12:55:46;;;;;;;2.08;1.20;;;21.70;93.50;;;;;;5064453;28;20047;-66
2022/08/06 12:58:15;;;;;;;2.42;1.60;;;21.50;93.60;;;;;;5066359;28;20043;-66
2022/08/06 13:00:42;;;;;;;2.67;1.33;;;21.40;93.80;;;;;;5063365;28;20443;-65
2022/08/06 13:03:10;;;;;;;2.28;1.50;;;21.40;94.00;;;;;;5059823;28;20044;-64
2022/08/06 13:05:36;;;;;;;3.17;1.50;;;21.20;94.00;;;;;;5073000;28;20064;-65
2022/08/06 13:08:03;;;;;;;2.80;1.40;;;21.30;94.40;;;;;;5068135;28;20478;-65
2022/08/06 13:10:29;;;;;;;2.15;1.20;;;21.30;94.60;;;;;;5055628;28;20052;-65